Time;durP1;ratioP1;P1;durP2;ratioP2;P2;SDS_P1;SDS_P2;PMS_P1;PMS_P2;Temp;Humidity;BMP_temperature;BMP_pressure;BME280_temperature;BME280_humidity;BME280_pressure;Samples;Min_cycle;Max_cycle;Signal;HPM_P1;HPM_P2
2023/10/20 00:02:22;;;;;;;35.57;21.13;;;;;;;;;;5033058;28;20454;-76
2023/10/20 00:04:48;;;;;;;37.87;20.63;;;;;;;;;;5038408;28;20484;-76
2023/10/20 00:07:15;;;;;;;40.67;21.60;;;;;;;;;;5041357;28;20465;-76
2023/10/20 00:09:42;;;;;;;38.17;20.47;;;;;;;;;;5032678;28;20457;-76
2023/10/20 00:12:10;;;;;;;36.40;22.13;;;;;;;;;;5041199;28;20549;-76
2023/10/20 00:14:36;;;;;;;37.93;22.00;;;;;;;;;;5040922;28;20450;-77
2023/10/20 00:17:04;;;;;;;38.37;21.40;;;;;;;;;;5038834;28;20473;-77
2023/10/20 00:19:31;;;;;;;38.90;20.83;;;;;;;;;;5040112;28;20462;-76
2023/10/20 00:21:58;;;;;;;34.23;20.90;;;;;;;;;;5040606;28;20503;-77
2023/10/20 00:24:25;;;;;;;34.27;20.47;;;;;;;;;;5036913;28;20584;-76
2023/10/20 00:26:51;;;;;;;35.03;20.67;;;;;;;;;;5035613;28;20512;-77
2023/10/20 00:29:18;;;;;;;43.33;23.43;;;;;;;;;;5040157;28;20469;-77
2023/10/20 00:31:44;;;;;;;33.83;20.87;;;;;;;;;;5040127;28;20486;-77
2023/10/20 00:34:12;;;;;;;37.10;20.50;;;;;;;;;;5038053;28;20485;-77
2023/10/20 00:36:38;;;;;;;38.83;21.30;;;;;;;;;;5040729;28;20485;-76
2023/10/20 00:39:06;;;;;;;31.47;19.77;;;;;;;;;;5039960;28;20528;-76
2023/10/20 00:41:34;;;;;;;31.57;19.40;;;;;;;;;;5032270;28;20553;-76
2023/10/20 00:44:01;;;;;;;33.20;19.60;;;;;;;;;;5034720;28;20475;-76
2023/10/20 00:46:27;;;;;;;35.93;20.83;;;;;;;;;;5040135;28;20486;-76
2023/10/20 00:48:54;;;;;;;37.20;20.97;;;;;;;;;;5036873;28;20955;-76
2023/10/20 00:51:21;;;;;;;32.53;19.67;;;;;;;;;;5041179;28;20485;-76
2023/10/20 00:53:48;;;;;;;32.30;19.03;;;;;;;;;;5041340;28;20534;-76
2023/10/20 00:56:16;;;;;;;36.30;20.13;;;;;;;;;;5039793;28;20453;-76
2023/10/20 00:58:42;;;;;;;39.30;19.70;;;;;;;;;;5041024;28;20569;-76
2023/10/20 01:01:09;;;;;;;34.50;19.03;;;;;;;;;;5038818;28;20537;-76
2023/10/20 01:03:35;;;;;;;35.60;19.60;;;;;;;;;;5037138;28;20446;-76
2023/10/20 01:06:03;;;;;;;38.00;20.70;;;;;;;;;;5036095;28;20513;-76
2023/10/20 01:08:31;;;;;;;38.10;20.70;;;;;;;;;;5041538;28;20543;-76
2023/10/20 01:10:57;;;;;;;37.73;21.83;;;;;;;;;;5038448;28;20468;-76
2023/10/20 01:13:24;;;;;;;33.30;19.93;;;;;;;;;;5039630;28;20456;-76
2023/10/20 01:15:51;;;;;;;34.07;21.57;;;;;;;;;;5039654;28;20473;-76
2023/10/20 01:18:17;;;;;;;33.17;19.63;;;;;;;;;;5033871;28;20473;-76
2023/10/20 01:20:44;;;;;;;37.63;20.70;;;;;;;;;;5037235;28;20521;-76
2023/10/20 01:23:10;;;;;;;37.20;21.30;;;;;;;;;;5040736;28;20481;-75
2023/10/20 01:25:38;;;;;;;33.17;21.47;;;;;;;;;;5043656;28;20525;-76
2023/10/20 01:28:05;;;;;;;38.77;22.73;;;;;;;;;;5044586;28;20484;-75
2023/10/20 01:30:31;;;;;;;33.20;20.47;;;;;;;;;;5043166;28;20536;-76
2023/10/20 01:32:58;;;;;;;40.70;21.60;;;;;;;;;;5042495;28;20485;-76
2023/10/20 01:35:24;;;;;;;38.47;19.43;;;;;;;;;;5043200;28;20482;-76
2023/10/20 01:37:51;;;;;;;40.60;22.10;;;;;;;;;;5043344;28;20525;-76
2023/10/20 01:40:19;;;;;;;36.27;20.47;;;;;;;;;;5043635;28;20518;-77
2023/10/20 01:42:47;;;;;;;34.37;19.90;;;;;;;;;;5043220;28;20883;-77
2023/10/20 01:45:13;;;;;;;34.00;19.00;;;;;;;;;;5041589;28;20577;-77
2023/10/20 01:47:40;;;;;;;37.73;20.70;;;;;;;;;;5043463;28;20485;-77
2023/10/20 01:50:06;;;;;;;38.30;21.23;;;;;;;;;;5044372;28;20489;-78
2023/10/20 01:52:33;;;;;;;45.00;21.73;;;;;;;;;;5042435;28;20474;-78
2023/10/20 01:54:59;;;;;;;40.10;19.83;;;;;;;;;;5038924;28;20494;-77
2023/10/20 01:57:25;;;;;;;47.37;22.20;;;;;;;;;;5043310;28;20519;-77
2023/10/20 01:59:53;;;;;;;35.23;21.27;;;;;;;;;;5041292;28;20552;-77
2023/10/20 02:02:20;;;;;;;35.83;21.50;;;;;;;;;;5042125;28;20489;-77
2023/10/20 02:04:46;;;;;;;30.43;20.40;;;;;;;;;;5043314;28;20533;-76
2023/10/20 02:07:13;;;;;;;35.63;20.40;;;;;;;;;;5043774;28;20536;-76
2023/10/20 02:09:39;;;;;;;33.20;21.13;;;;;;;;;;5037440;28;20493;-76
2023/10/20 02:12:05;;;;;;;41.13;20.97;;;;;;;;;;5043544;28;20466;-76
2023/10/20 02:14:33;;;;;;;47.03;23.17;;;;;;;;;;5037622;28;20484;-76
2023/10/20 02:17:00;;;;;;;40.63;23.10;;;;;;;;;;5042514;28;20461;-76
2023/10/20 02:19:27;;;;;;;34.97;21.70;;;;;;;;;;5043155;28;20739;-77
2023/10/20 02:21:55;;;;;;;33.23;21.07;;;;;;;;;;5043727;28;20481;-76
2023/10/20 02:24:21;;;;;;;38.73;21.37;;;;;;;;;;5043826;28;20464;-76
2023/10/20 02:26:48;;;;;;;35.30;20.03;;;;;;;;;;5042838;28;20498;-76
2023/10/20 02:29:14;;;;;;;35.83;21.27;;;;;;;;;;5043277;28;20529;-76
2023/10/20 02:31:41;;;;;;;38.80;20.80;;;;;;;;;;5036764;28;20591;-77
2023/10/20 02:34:09;;;;;;;46.50;22.47;;;;;;;;;;5043077;28;20484;-76
2023/10/20 02:36:35;;;;;;;34.20;17.87;;;;;;;;;;5043804;28;20477;-76
2023/10/20 02:39:01;;;;;;;38.40;20.70;;;;;;;;;;5043059;28;20449;-76
2023/10/20 02:41:28;;;;;;;41.20;20.43;;;;;;;;;;5040071;28;20918;-75
2023/10/20 02:43:56;;;;;;;36.10;22.67;;;;;;;;;;5042475;28;20524;-76
2023/10/20 02:46:23;;;;;;;37.10;20.60;;;;;;;;;;5039233;28;21141;-76
2023/10/20 02:48:49;;;;;;;39.93;21.50;;;;;;;;;;5043201;28;20446;-75
2023/10/20 02:51:17;;;;;;;39.47;21.07;;;;;;;;;;5043327;28;20541;-76
2023/10/20 02:53:44;;;;;;;36.87;20.73;;;;;;;;;;5039367;28;20450;-76
2023/10/20 02:56:11;;;;;;;42.37;21.47;;;;;;;;;;5043236;28;20469;-76
2023/10/20 02:58:37;;;;;;;38.40;20.33;;;;;;;;;;5043295;28;20448;-76
2023/10/20 03:01:06;;;;;;;39.17;20.97;;;;;;;;;;5042595;28;20525;-76
2023/10/20 03:03:32;;;;;;;36.80;20.03;;;;;;;;;;5043083;28;20477;-76
2023/10/20 03:06:00;;;;;;;37.97;20.23;;;;;;;;;;5042618;28;20995;-75
2023/10/20 03:08:28;;;;;;;39.30;21.77;;;;;;;;;;5033143;28;21368;-76
2023/10/20 03:10:54;;;;;;;36.17;22.27;;;;;;;;;;5035136;28;20461;-76
2023/10/20 03:13:22;;;;;;;37.60;20.00;;;;;;;;;;5043115;28;20442;-76
2023/10/20 03:15:48;;;;;;;39.07;20.60;;;;;;;;;;5043132;28;20466;-76
2023/10/20 03:18:16;;;;;;;43.63;20.70;;;;;;;;;;5041973;28;20446;-76
2023/10/20 03:20:43;;;;;;;42.70;20.67;;;;;;;;;;5040787;28;20508;-76
2023/10/20 03:23:09;;;;;;;38.53;21.47;;;;;;;;;;5036419;28;20482;-75
2023/10/20 03:25:37;;;;;;;41.47;18.63;;;;;;;;;;5040777;28;20552;-76
2023/10/20 03:28:05;;;;;;;44.70;22.10;;;;;;;;;;5041939;28;20937;-76
2023/10/20 03:30:31;;;;;;;36.33;20.67;;;;;;;;;;5041664;28;20501;-76
2023/10/20 03:32:58;;;;;;;45.87;18.70;;;;;;;;;;5042646;28;20457;-76
2023/10/20 03:35:24;;;;;;;37.67;19.50;;;;;;;;;;5042526;28;20544;-76
2023/10/20 03:37:54;;;;;;;43.20;21.00;;;;;;;;;;5042393;28;20464;-76
2023/10/20 03:40:23;;;;;;;40.60;21.07;;;;;;;;;;5042079;28;20492;-76
2023/10/20 03:42:51;;;;;;;37.33;19.13;;;;;;;;;;5037353;28;20461;-76
2023/10/20 03:45:18;;;;;;;33.97;19.83;;;;;;;;;;5040863;28;20473;-76
2023/10/20 03:47:44;;;;;;;36.43;20.33;;;;;;;;;;5037019;28;20452;-76
2023/10/20 03:50:15;;;;;;;33.80;19.90;;;;;;;;;;5036636;28;20462;-76
2023/10/20 03:52:44;;;;;;;37.23;20.40;;;;;;;;;;5039260;28;20544;-75
2023/10/20 03:55:13;;;;;;;38.87;21.07;;;;;;;;;;5038501;28;20493;-75
2023/10/20 03:57:40;;;;;;;35.07;18.63;;;;;;;;;;5040764;28;20453;-75
2023/10/20 04:00:17;;;;;;;37.43;20.00;;;;;;;;;;5041280;28;20833;-76
2023/10/20 04:02:46;;;;;;;29.90;19.30;;;;;;;;;;5041246;28;20462;-75
2023/10/20 04:05:13;;;;;;;32.53;18.80;;;;;;;;;;5039403;28;20454;-76
2023/10/20 04:07:41;;;;;;;33.17;19.33;;;;;;;;;;5037260;28;20834;-76
2023/10/20 04:10:08;;;;;;;36.07;20.00;;;;;;;;;;5043549;28;20487;-76
2023/10/20 04:12:34;;;;;;;35.60;18.87;;;;;;;;;;5041395;28;20493;-76
2023/10/20 04:15:01;;;;;;;35.70;19.23;;;;;;;;;;5041394;28;20994;-76
2023/10/20 04:17:29;;;;;;;32.17;19.57;;;;;;;;;;5040851;28;20957;-77
2023/10/20 04:19:56;;;;;;;35.70;19.20;;;;;;;;;;5041370;28;20469;-77
2023/10/20 04:22:23;;;;;;;34.20;18.80;;;;;;;;;;5040723;28;20548;-77
2023/10/20 04:24:49;;;;;;;33.30;19.40;;;;;;;;;;5040385;28;20462;-76
2023/10/20 04:27:21;;;;;;;33.73;17.80;;;;;;;;;;5040096;28;20520;-76
2023/10/20 04:41:50;;;;;;;33.73;19.37;;;;;;;;;;5040839;28;20446;-75
2023/10/20 04:43:37;;;;;;;33.17;17.40;;;;;;;;;;5039106;28;20448;-75
2023/10/20 04:52:04;;;;;;;35.33;20.10;;;;;;;;;;5034785;28;20454;-77
2023/10/20 04:54:44;;;;;;;40.73;18.90;;;;;;;;;;5037489;28;20849;-80
2023/10/20 04:57:37;;;;;;;29.40;18.37;;;;;;;;;;5042362;28;20512;-80
2023/10/20 05:02:56;;;;;;;32.70;18.07;;;;;;;;;;5041433;28;21025;-79
2023/10/20 05:05:33;;;;;;;25.73;17.10;;;;;;;;;;5043045;28;20500;-80
2023/10/20 05:08:04;;;;;;;34.93;19.10;;;;;;;;;;5044668;28;21015;-81
2023/10/20 05:10:31;;;;;;;36.30;19.10;;;;;;;;;;5044569;28;20469;-81
2023/10/20 05:12:57;;;;;;;29.10;17.73;;;;;;;;;;5044972;28;20508;-81
2023/10/20 05:15:24;;;;;;;36.67;18.20;;;;;;;;;;5042734;28;20465;-80
2023/10/20 05:17:50;;;;;;;33.13;17.97;;;;;;;;;;5042313;28;20495;-81
2023/10/20 05:20:20;;;;;;;33.10;18.33;;;;;;;;;;5044666;28;20513;-79
2023/10/20 05:22:48;;;;;;;26.00;17.00;;;;;;;;;;5042380;28;20513;-79
2023/10/20 05:25:15;;;;;;;30.97;18.13;;;;;;;;;;5044409;28;20468;-81
2023/10/20 05:27:41;;;;;;;24.57;16.87;;;;;;;;;;5044492;28;20493;-80
2023/10/20 05:30:08;;;;;;;23.60;15.77;;;;;;;;;;5042609;28;20481;-81
2023/10/20 05:32:34;;;;;;;35.33;17.50;;;;;;;;;;5037221;28;20467;-82
2023/10/20 05:35:01;;;;;;;28.77;16.60;;;;;;;;;;5039823;28;20485;-81
2023/10/20 05:37:28;;;;;;;30.03;16.70;;;;;;;;;;5042512;28;20514;-81
2023/10/20 05:39:55;;;;;;;33.40;17.37;;;;;;;;;;5040541;28;20544;-81
2023/10/20 05:42:22;;;;;;;34.77;18.30;;;;;;;;;;5039208;28;20529;-81
2023/10/20 05:44:58;;;;;;;25.50;16.77;;;;;;;;;;5042061;28;20480;-81
2023/10/20 05:47:25;;;;;;;29.50;15.80;;;;;;;;;;5040817;28;20485;-81
2023/10/20 05:49:51;;;;;;;24.83;16.23;;;;;;;;;;5040462;28;20552;-82
2023/10/20 05:52:18;;;;;;;23.47;14.40;;;;;;;;;;5038022;28;20473;-81
2023/10/20 05:54:44;;;;;;;22.03;14.70;;;;;;;;;;5043544;28;20514;-82
2023/10/20 05:57:12;;;;;;;27.70;18.37;;;;;;;;;;5042685;28;20528;-81
2023/10/20 05:59:40;;;;;;;23.17;14.23;;;;;;;;;;5042947;28;20446;-81
2023/10/20 06:02:07;;;;;;;19.60;13.63;;;;;;;;;;5042406;28;20526;-81
2023/10/20 06:04:34;;;;;;;22.60;14.30;;;;;;;;;;5041561;28;20475;-82
2023/10/20 06:07:01;;;;;;;22.30;15.23;;;;;;;;;;5043347;28;20494;-81
2023/10/20 06:09:28;;;;;;;24.30;14.47;;;;;;;;;;5041409;28;20498;-82
2023/10/20 06:11:54;;;;;;;19.43;15.10;;;;;;;;;;5043507;28;20496;-82
2023/10/20 06:14:23;;;;;;;19.60;14.20;;;;;;;;;;5043469;28;20585;-82
2023/10/20 06:16:50;;;;;;;21.53;13.47;;;;;;;;;;5043021;28;20458;-82
2023/10/20 06:19:16;;;;;;;22.97;14.30;;;;;;;;;;5043648;28;20540;-82
2023/10/20 06:21:43;;;;;;;24.50;12.67;;;;;;;;;;5042032;28;20457;-82
2023/10/20 06:24:09;;;;;;;23.90;14.37;;;;;;;;;;5043417;28;20989;-82
2023/10/20 06:26:36;;;;;;;23.80;13.57;;;;;;;;;;5043510;28;20477;-82
2023/10/20 06:29:03;;;;;;;17.40;12.53;;;;;;;;;;5043182;28;20532;-82
2023/10/20 06:31:41;;;;;;;22.27;12.73;;;;;;;;;;5042687;28;20470;-82
2023/10/20 06:34:23;;;;;;;18.93;12.17;;;;;;;;;;5041328;28;20463;-82
2023/10/20 06:36:51;;;;;;;18.07;10.57;;;;;;;;;;5035562;28;20454;-82
2023/10/20 06:39:18;;;;;;;17.57;12.10;;;;;;;;;;5040058;28;20450;-82
2023/10/20 06:41:45;;;;;;;17.70;12.53;;;;;;;;;;5042974;28;20458;-81
2023/10/20 06:44:11;;;;;;;16.87;11.07;;;;;;;;;;5043042;28;20463;-82
2023/10/20 06:46:39;;;;;;;20.20;11.53;;;;;;;;;;5042478;28;20485;-82
2023/10/20 06:49:07;;;;;;;17.60;12.20;;;;;;;;;;5043122;28;21458;-82
2023/10/20 06:51:33;;;;;;;16.17;10.47;;;;;;;;;;5042421;28;20460;-82
2023/10/20 06:53:59;;;;;;;17.70;10.73;;;;;;;;;;5042623;28;20477;-81
2023/10/20 06:56:26;;;;;;;14.23;9.53;;;;;;;;;;5043143;28;20502;-81
2023/10/20 06:58:52;;;;;;;15.40;9.90;;;;;;;;;;5045924;28;20457;-81
2023/10/20 07:01:19;;;;;;;12.77;9.53;;;;;;;;;;5042224;28;20489;-81
2023/10/20 07:03:46;;;;;;;14.00;9.63;;;;;;;;;;5040870;28;20474;-81
2023/10/20 07:06:13;;;;;;;16.87;10.43;;;;;;;;;;5038619;28;20526;-81
2023/10/20 07:08:39;;;;;;;15.60;9.27;;;;;;;;;;5043187;28;20445;-81
2023/10/20 07:11:06;;;;;;;16.20;9.40;;;;;;;;;;5042363;28;20490;-81
2023/10/20 07:13:32;;;;;;;15.47;9.97;;;;;;;;;;5040746;28;20521;-81
2023/10/20 07:15:59;;;;;;;11.97;9.20;;;;;;;;;;5042220;28;20461;-81
2023/10/20 07:18:26;;;;;;;13.57;8.23;;;;;;;;;;5033110;28;20538;-82
2023/10/20 07:20:54;;;;;;;11.77;9.00;;;;;;;;;;5035618;28;20468;-81
2023/10/20 07:23:21;;;;;;;10.00;7.50;;;;;;;;;;5041087;28;20504;-81
2023/10/20 07:25:47;;;;;;;10.47;7.27;;;;;;;;;;5035606;28;20567;-81
2023/10/20 07:28:13;;;;;;;11.07;8.10;;;;;;;;;;5034010;28;20548;-81
2023/10/20 07:30:40;;;;;;;8.97;7.63;;;;;;;;;;5036749;28;20864;-81
2023/10/20 07:33:07;;;;;;;8.73;7.40;;;;;;;;;;5036535;28;20967;-82
2023/10/20 07:35:34;;;;;;;9.23;7.47;;;;;;;;;;5035795;28;20477;-81
2023/10/20 07:38:01;;;;;;;10.30;7.00;;;;;;;;;;5029357;28;20528;-81
2023/10/20 07:40:34;;;;;;;8.30;6.77;;;;;;;;;;5038200;28;20450;-81
2023/10/20 07:43:01;;;;;;;8.70;6.30;;;;;;;;;;5035302;28;20461;-82
2023/10/20 07:45:28;;;;;;;7.47;6.40;;;;;;;;;;5031795;28;20462;-82
2023/10/20 07:47:54;;;;;;;9.57;6.43;;;;;;;;;;5033705;28;20477;-82
2023/10/20 07:50:21;;;;;;;9.07;6.43;;;;;;;;;;5033634;28;20494;-81
2023/10/20 07:52:47;;;;;;;11.03;7.27;;;;;;;;;;5034776;28;20454;-81
2023/10/20 07:55:15;;;;;;;8.73;6.43;;;;;;;;;;5035480;28;20493;-81
2023/10/20 07:57:41;;;;;;;7.63;6.27;;;;;;;;;;5032839;28;20450;-81
2023/10/20 08:00:13;;;;;;;7.83;6.20;;;;;;;;;;5033036;28;20465;-82
2023/10/20 08:02:39;;;;;;;8.60;6.20;;;;;;;;;;5037347;28;20457;-82
2023/10/20 08:05:08;;;;;;;7.00;6.23;;;;;;;;;;5032636;28;20525;-82
2023/10/20 08:07:34;;;;;;;9.03;7.17;;;;;;;;;;5028294;28;20521;-82
2023/10/20 08:10:01;;;;;;;8.00;5.97;;;;;;;;;;5033706;28;20477;-82
2023/10/20 08:12:28;;;;;;;8.43;6.90;;;;;;;;;;5028051;28;20513;-83
2023/10/20 08:14:56;;;;;;;7.90;6.07;;;;;;;;;;5030729;28;20458;-82
2023/10/20 08:17:22;;;;;;;7.57;6.77;;;;;;;;;;5033619;28;20454;-82
2023/10/20 08:19:49;;;;;;;8.50;6.50;;;;;;;;;;5029706;28;20457;-81
2023/10/20 08:22:15;;;;;;;6.43;5.53;;;;;;;;;;5034982;28;20576;-81
2023/10/20 08:24:41;;;;;;;10.63;6.07;;;;;;;;;;5032539;28;20493;-82
2023/10/20 08:27:08;;;;;;;9.13;7.27;;;;;;;;;;5030018;28;20497;-82
2023/10/20 08:29:36;;;;;;;7.80;6.90;;;;;;;;;;5033436;28;20442;-82
2023/10/20 08:32:03;;;;;;;10.70;6.40;;;;;;;;;;5031264;28;21144;-81
2023/10/20 08:34:31;;;;;;;7.63;6.10;;;;;;;;;;5045528;28;20461;-81
2023/10/20 08:36:57;;;;;;;8.07;6.17;;;;;;;;;;5045495;28;20442;-81
2023/10/20 08:39:25;;;;;;;6.47;5.80;;;;;;;;;;5045822;28;20455;-81
2023/10/20 08:41:52;;;;;;;9.57;6.60;;;;;;;;;;5045086;28;20839;-81
2023/10/20 08:44:19;;;;;;;9.40;6.00;;;;;;;;;;5045426;28;20540;-82
2023/10/20 08:46:49;;;;;;;7.10;6.07;;;;;;;;;;5044404;28;20492;-81
2023/10/20 08:49:18;;;;;;;7.23;6.47;;;;;;;;;;5043965;28;20450;-81
2023/10/20 08:51:45;;;;;;;6.17;5.60;;;;;;;;;;5046308;28;20458;-82
2023/10/20 08:54:13;;;;;;;8.13;6.50;;;;;;;;;;5044158;28;20465;-81
2023/10/20 08:56:40;;;;;;;8.40;6.67;;;;;;;;;;5044269;28;20480;-81
2023/10/20 08:59:06;;;;;;;9.93;6.80;;;;;;;;;;5043693;28;21030;-81
2023/10/20 09:01:33;;;;;;;6.47;5.80;;;;;;;;;;5044221;28;20533;-81
2023/10/20 09:04:01;;;;;;;6.63;6.03;;;;;;;;;;5044219;28;20571;-81
2023/10/20 09:06:27;;;;;;;6.40;5.80;;;;;;;;;;5044469;28;20458;-81
2023/10/20 09:08:54;;;;;;;7.80;7.00;;;;;;;;;;5039362;28;20492;-81
2023/10/20 09:11:24;;;;;;;9.10;6.47;;;;;;;;;;5038913;28;20488;-82
2023/10/20 09:13:51;;;;;;;6.80;6.10;;;;;;;;;;5043137;28;20473;-82
2023/10/20 09:16:17;;;;;;;8.13;6.77;;;;;;;;;;5041415;28;20565;-81
2023/10/20 09:18:45;;;;;;;6.60;5.53;;;;;;;;;;5043365;28;20464;-81
2023/10/20 09:21:14;;;;;;;7.33;6.13;;;;;;;;;;5044181;28;20540;-82
2023/10/20 09:23:40;;;;;;;8.07;6.00;;;;;;;;;;5043640;28;20483;-82
2023/10/20 09:26:07;;;;;;;6.70;5.53;;;;;;;;;;5044304;28;20481;-82
2023/10/20 09:28:33;;;;;;;10.47;6.30;;;;;;;;;;5044638;28;20572;-80
2023/10/20 09:31:01;;;;;;;8.93;6.00;;;;;;;;;;5043460;28;20453;-81
2023/10/20 09:33:27;;;;;;;7.10;6.40;;;;;;;;;;5044119;28;20488;-82
2023/10/20 09:35:54;;;;;;;6.53;5.27;;;;;;;;;;5039569;28;20614;-82
2023/10/20 09:38:25;;;;;;;6.10;5.50;;;;;;;;;;5041733;28;20511;-82
2023/10/20 09:40:55;;;;;;;5.43;4.73;;;;;;;;;;5044320;28;20977;-82
2023/10/20 09:43:25;;;;;;;4.93;4.43;;;;;;;;;;5041538;28;20473;-82
2023/10/20 09:45:54;;;;;;;7.10;5.40;;;;;;;;;;5042788;28;20497;-84
2023/10/20 09:48:20;;;;;;;6.27;5.67;;;;;;;;;;5052491;28;20486;-84
2023/10/20 09:50:48;;;;;;;6.47;5.10;;;;;;;;;;5040754;28;20509;-83
2023/10/20 09:53:15;;;;;;;9.03;6.33;;;;;;;;;;5043788;28;20445;-83
2023/10/20 09:55:45;;;;;;;5.07;4.57;;;;;;;;;;5043475;28;20461;-83
2023/10/20 09:58:11;;;;;;;5.23;4.73;;;;;;;;;;5044199;28;20469;-82
2023/10/20 10:00:38;;;;;;;6.77;4.47;;;;;;;;;;5043327;28;20465;-83
2023/10/20 10:03:04;;;;;;;5.80;4.37;;;;;;;;;;5043154;28;20464;-83
2023/10/20 10:05:31;;;;;;;5.20;4.50;;;;;;;;;;5043871;28;20959;-83
2023/10/20 10:08:05;;;;;;;5.03;4.53;;;;;;;;;;5043221;28;20560;-83
2023/10/20 10:10:32;;;;;;;5.07;4.10;;;;;;;;;;5041263;28;20488;-84
2023/10/20 10:13:01;;;;;;;4.90;4.40;;;;;;;;;;5041623;28;20469;-82
2023/10/20 10:15:36;;;;;;;5.10;4.53;;;;;;;;;;5039885;28;20480;-81
2023/10/20 10:18:08;;;;;;;4.53;3.90;;;;;;;;;;5041643;28;20453;-81
2023/10/20 10:20:40;;;;;;;6.90;3.63;;;;;;;;;;5034806;28;20458;-80
2023/10/20 10:23:07;;;;;;;4.40;4.00;;;;;;;;;;5032963;28;20517;-81
2023/10/20 10:25:34;;;;;;;5.20;4.33;;;;;;;;;;5036653;28;21350;-81
2023/10/20 10:28:09;;;;;;;4.23;3.40;;;;;;;;;;5031088;28;20584;-81
2023/10/20 10:30:37;;;;;;;4.93;3.83;;;;;;;;;;5029960;28;20461;-81
2023/10/20 10:33:03;;;;;;;4.30;3.90;;;;;;;;;;5033616;28;20459;-81
2023/10/20 10:35:30;;;;;;;3.57;3.27;;;;;;;;;;5033080;28;20453;-82
2023/10/20 10:37:56;;;;;;;3.53;3.23;;;;;;;;;;5031875;28;20457;-82
2023/10/20 10:40:24;;;;;;;4.80;3.73;;;;;;;;;;5030695;28;20477;-82
2023/10/20 10:42:51;;;;;;;5.50;4.10;;;;;;;;;;5032494;28;20474;-82
2023/10/20 10:45:23;;;;;;;0.30;0.20;;;;;;;;;;5034316;28;20458;-82
2023/10/20 10:47:49;;;;;;;3.63;3.33;;;;;;;;;;5036954;28;20490;-82
2023/10/20 10:50:16;;;;;;;8.70;6.00;;;;;;;;;;5030718;28;20584;-82
2023/10/20 10:52:43;;;;;;;4.67;4.27;;;;;;;;;;5037848;28;20457;-81
2023/10/20 10:55:10;;;;;;;3.83;3.50;;;;;;;;;;5030418;28;20541;-82
2023/10/20 10:57:37;;;;;;;5.10;3.90;;;;;;;;;;5036811;28;20538;-81
2023/10/20 11:00:04;;;;;;;3.23;2.90;;;;;;;;;;5028710;28;20509;-81
2023/10/20 11:02:32;;;;;;;4.63;3.73;;;;;;;;;;5028576;28;20458;-82
2023/10/20 11:04:59;;;;;;;3.40;3.10;;;;;;;;;;5032778;28;20450;-82
2023/10/20 11:07:25;;;;;;;6.40;4.30;;;;;;;;;;5030321;28;20530;-82
2023/10/20 11:09:52;;;;;;;5.43;4.07;;;;;;;;;;5030617;28;20446;-82
2023/10/20 11:12:18;;;;;;;5.73;5.13;;;;;;;;;;5036946;28;20488;-82
2023/10/20 11:14:45;;;;;;;5.60;4.57;;;;;;;;;;5037103;28;21054;-82
2023/10/20 11:17:13;;;;;;;6.20;4.73;;;;;;;;;;5040597;28;20510;-81
2023/10/20 11:19:41;;;;;;;4.50;3.60;;;;;;;;;;5032102;28;20453;-80
2023/10/20 11:22:14;;;;;;;4.03;3.73;;;;;;;;;;5034037;28;21077;-82
2023/10/20 11:24:40;;;;;;;4.80;4.37;;;;;;;;;;5030524;28;20457;-82
2023/10/20 11:27:07;;;;;;;3.90;3.60;;;;;;;;;;5032135;28;20446;-81
2023/10/20 11:29:35;;;;;;;4.50;3.87;;;;;;;;;;5035047;28;20500;-81
2023/10/20 11:34:46;;;;;;;5.80;4.50;;;;;;;;;;5149277;27;20531;-79
2023/10/20 11:37:14;;;;;;;5.27;3.97;;;;;;;;;;5135141;27;21002;-80
2023/10/20 11:39:40;;;;;;;4.50;3.43;;;;;;;;;;5135572;27;20525;-80
2023/10/20 11:42:07;;;;;;;4.23;3.80;;;;;;;;;;5139122;27;20460;-81
2023/10/20 11:44:33;;;;;;;4.83;3.50;;;;;;;;;;5137951;27;20596;-79
2023/10/20 11:50:35;;;;;;;7.97;5.80;;;;;;;;;;5138962;27;20642;-83
2023/10/20 11:53:01;;;;;;;5.80;4.50;;;;;;;;;;5126213;27;20480;-81
2023/10/20 11:55:28;;;;;;;5.97;4.27;;;;;;;;;;5120528;28;20518;-82
2023/10/20 11:57:54;;;;;;;4.20;1.80;;;;;;;;;;5118817;28;20485;-82
2023/10/20 12:00:21;;;;;;;8.00;5.23;;;;;;;;;;5117386;28;20599;-81
2023/10/20 12:02:48;;;;;;;5.60;4.40;;;;;;;;;;5118658;28;20474;-82
2023/10/20 12:05:15;;;;;;;5.90;4.70;;;;;;;;;;5121267;28;20454;-82
2023/10/20 12:07:43;;;;;;;11.30;5.50;;;;;;;;;;5115114;28;20482;-82
2023/10/20 12:10:10;;;;;;;5.80;4.37;;;;;;;;;;5117299;28;20442;-82
2023/10/20 12:12:36;;;;;;;6.87;4.73;;;;;;;;;;5118279;28;20462;-82
2023/10/20 12:15:02;;;;;;;6.90;4.63;;;;;;;;;;5122063;28;20455;-81
2023/10/20 12:17:29;;;;;;;5.63;4.30;;;;;;;;;;5117906;28;20462;-81
2023/10/20 12:19:55;;;;;;;5.33;4.80;;;;;;;;;;5120649;28;20473;-81
2023/10/20 12:22:22;;;;;;;11.07;8.17;;;;;;;;;;5117678;28;20526;-81
2023/10/20 12:24:51;;;;;;;7.63;5.30;;;;;;;;;;5111182;28;20463;-81
2023/10/20 12:27:17;;;;;;;5.97;5.20;;;;;;;;;;5124385;28;20457;-81
2023/10/20 12:29:43;;;;;;;5.93;4.90;;;;;;;;;;5119159;28;20446;-81
2023/10/20 12:32:12;;;;;;;5.40;4.90;;;;;;;;;;5118139;28;20477;-82
2023/10/20 12:34:38;;;;;;;6.97;5.47;;;;;;;;;;5112155;28;20465;-82
2023/10/20 12:37:05;;;;;;;6.03;5.10;;;;;;;;;;5120340;28;20459;-81
2023/10/20 12:39:32;;;;;;;6.80;5.60;;;;;;;;;;5123707;28;20486;-82
2023/10/20 12:42:03;;;;;;;5.80;5.30;;;;;;;;;;5118978;27;20446;-81
2023/10/20 12:44:30;;;;;;;5.53;4.93;;;;;;;;;;5125750;28;20468;-82
2023/10/20 12:46:56;;;;;;;6.97;5.60;;;;;;;;;;5123175;27;20465;-82
2023/10/20 12:49:22;;;;;;;6.20;5.33;;;;;;;;;;5120772;28;20500;-82
2023/10/20 12:51:49;;;;;;;7.57;5.53;;;;;;;;;;5126092;28;20537;-82
2023/10/20 12:54:15;;;;;;;6.77;5.43;;;;;;;;;;5126369;28;20992;-82
2023/10/20 12:56:42;;;;;;;7.30;5.67;;;;;;;;;;5114336;28;20449;-82
2023/10/20 12:59:11;;;;;;;6.40;4.60;;;;;;;;;;5128328;28;20537;-82
2023/10/20 13:01:37;;;;;;;8.00;6.13;;;;;;;;;;5105171;28;20514;-81
2023/10/20 13:04:04;;;;;;;6.97;5.70;;;;;;;;;;5108530;28;20480;-82
2023/10/20 13:06:30;;;;;;;6.43;5.27;;;;;;;;;;5110257;28;20531;-82
2023/10/20 13:08:57;;;;;;;6.90;6.20;;;;;;;;;;5105463;28;20515;-82
2023/10/20 13:11:23;;;;;;;8.93;6.70;;;;;;;;;;5103968;28;20459;-82
2023/10/20 13:13:50;;;;;;;8.03;6.30;;;;;;;;;;5103590;28;20477;-82
2023/10/20 13:16:18;;;;;;;7.47;6.30;;;;;;;;;;5100043;28;20501;-82
2023/10/20 13:18:44;;;;;;;7.03;6.23;;;;;;;;;;5113368;28;20458;-83
2023/10/20 13:21:11;;;;;;;8.50;7.10;;;;;;;;;;5115172;28;20482;-82
2023/10/20 13:23:38;;;;;;;7.23;5.53;;;;;;;;;;5100479;28;20472;-82
2023/10/20 13:26:05;;;;;;;7.10;5.60;;;;;;;;;;5110182;28;20451;-83
2023/10/20 13:28:31;;;;;;;8.30;6.03;;;;;;;;;;5103482;28;20451;-82
2023/10/20 13:31:03;;;;;;;9.60;8.40;;;;;;;;;;5104916;28;20928;-82
2023/10/20 13:33:31;;;;;;;8.50;6.33;;;;;;;;;;5104345;28;20514;-82
2023/10/20 13:36:01;;;;;;;11.20;10.00;;;;;;;;;;5113813;28;20969;-82
2023/10/20 13:38:27;;;;;;;7.07;6.33;;;;;;;;;;5115464;28;20447;-82
2023/10/20 13:40:53;;;;;;;7.90;6.50;;;;;;;;;;5107310;28;20550;-82
2023/10/20 13:43:20;;;;;;;9.07;6.33;;;;;;;;;;5107501;28;20502;-82
2023/10/20 13:45:48;;;;;;;7.37;6.13;;;;;;;;;;5109293;28;20464;-82
2023/10/20 13:48:14;;;;;;;8.27;7.37;;;;;;;;;;5098152;28;20470;-82
2023/10/20 13:50:42;;;;;;;8.20;5.20;;;;;;;;;;5108895;28;20443;-82
2023/10/20 13:53:10;;;;;;;7.70;5.40;;;;;;;;;;5102402;28;20497;-82
2023/10/20 13:55:36;;;;;;;8.03;6.47;;;;;;;;;;5112200;28;20528;-82
2023/10/20 13:58:03;;;;;;;7.93;6.73;;;;;;;;;;5106169;28;20531;-83
2023/10/20 14:00:30;;;;;;;7.13;5.97;;;;;;;;;;5103101;28;20562;-82
2023/10/20 14:02:57;;;;;;;9.57;6.90;;;;;;;;;;5104464;28;20523;-82
2023/10/20 14:05:24;;;;;;;7.50;5.40;;;;;;;;;;5106544;28;20490;-82
2023/10/20 14:07:51;;;;;;;10.23;7.33;;;;;;;;;;5108156;28;20450;-82
2023/10/20 14:10:18;;;;;;;9.53;6.20;;;;;;;;;;5109877;28;20514;-83
2023/10/20 14:12:45;;;;;;;10.73;6.80;;;;;;;;;;5091860;28;20467;-83
2023/10/20 14:15:11;;;;;;;10.47;6.70;;;;;;;;;;5110043;28;20494;-83
2023/10/20 14:17:38;;;;;;;10.27;7.40;;;;;;;;;;5102794;28;20455;-82
2023/10/20 14:20:05;;;;;;;15.17;8.73;;;;;;;;;;5102355;28;20482;-83
2023/10/20 14:22:31;;;;;;;10.37;7.60;;;;;;;;;;5110405;28;20466;-82
2023/10/20 14:24:59;;;;;;;12.07;8.70;;;;;;;;;;5111491;28;20483;-82
2023/10/20 14:27:25;;;;;;;11.00;7.70;;;;;;;;;;5108064;28;20470;-82
2023/10/20 14:29:51;;;;;;;9.10;7.40;;;;;;;;;;5094663;28;20995;-82
2023/10/20 14:32:18;;;;;;;11.80;8.30;;;;;;;;;;5102985;28;20526;-81
2023/10/20 14:34:44;;;;;;;15.97;9.80;;;;;;;;;;5104318;28;20493;-82
2023/10/20 14:37:11;;;;;;;12.37;9.13;;;;;;;;;;5107882;28;20596;-81
2023/10/20 14:39:39;;;;;;;14.97;8.90;;;;;;;;;;5103576;28;20507;-82
2023/10/20 14:42:07;;;;;;;14.23;9.60;;;;;;;;;;5103572;28;20471;-82
2023/10/20 14:44:34;;;;;;;21.13;12.00;;;;;;;;;;5101845;28;20469;-81
2023/10/20 14:47:00;;;;;;;17.00;10.60;;;;;;;;;;5104423;28;20489;-83
2023/10/20 14:49:26;;;;;;;15.40;10.10;;;;;;;;;;5104665;28;20573;-83
2023/10/20 14:51:53;;;;;;;16.53;9.67;;;;;;;;;;5104179;27;20894;-82
2023/10/20 14:54:19;;;;;;;13.90;10.13;;;;;;;;;;5096327;28;20460;-82
2023/10/20 14:56:47;;;;;;;17.10;11.20;;;;;;;;;;5104705;28;20468;-83